createdAt,value
2017-08-29T00:01:45.904Z,7.62
2017-08-29T00:04:12.738Z,6.03
2017-08-29T00:06:39.473Z,10.40
2017-08-29T00:09:06.201Z,10.52
2017-08-29T00:11:32.971Z,9.32
2017-08-29T00:13:59.698Z,8.23
2017-08-29T00:16:26.355Z,7.70
2017-08-29T00:18:53.015Z,8.38
2017-08-29T00:21:19.717Z,7.43
2017-08-29T00:23:46.350Z,7.03
2017-08-29T00:26:13.014Z,7.90
2017-08-29T00:28:39.685Z,8.02
2017-08-29T00:31:06.343Z,7.70
2017-08-29T00:33:32.988Z,8.20
2017-08-29T00:35:59.763Z,7.70
2017-08-29T00:38:26.403Z,7.32
2017-08-29T00:40:53.138Z,8.10
2017-08-29T00:43:19.815Z,7.60
2017-08-29T00:45:46.456Z,7.43
2017-08-29T00:48:13.162Z,7.65
2017-08-29T00:50:39.836Z,8.43
2017-08-29T00:53:06.537Z,8.70
2017-08-29T00:55:33.184Z,9.50
2017-08-29T00:58:00.134Z,9.80
2017-08-29T01:00:26.860Z,9.75
2017-08-29T01:02:53.609Z,9.40
2017-08-29T01:05:20.344Z,6.87
2017-08-29T01:07:46.981Z,7.93
2017-08-29T01:10:13.619Z,6.90
2017-08-29T01:12:40.305Z,7.85
2017-08-29T01:15:06.956Z,7.18
2017-08-29T01:17:33.615Z,7.45
2017-08-29T01:20:00.292Z,7.75
2017-08-29T01:22:27.039Z,7.12
2017-08-29T01:24:53.691Z,7.00
2017-08-29T01:27:20.374Z,7.87
2017-08-29T01:29:47.035Z,7.55
2017-08-29T01:32:13.784Z,7.40
2017-08-29T01:34:40.468Z,7.18
2017-08-29T01:37:07.127Z,7.57
2017-08-29T01:39:33.800Z,7.70
2017-08-29T01:42:00.546Z,6.95
2017-08-29T01:44:27.299Z,6.50
2017-08-29T01:46:54.043Z,7.05
2017-08-29T01:49:20.776Z,7.32
2017-08-29T01:51:47.430Z,7.00
2017-08-29T01:54:14.091Z,7.30
2017-08-29T01:56:40.769Z,7.30
2017-08-29T01:59:07.428Z,7.20
2017-08-29T02:01:34.168Z,8.93
2017-08-29T02:04:00.927Z,10.00
2017-08-29T02:06:27.666Z,12.10
2017-08-29T02:08:54.393Z,9.85
2017-08-29T02:11:21.072Z,10.70
2017-08-29T02:13:47.782Z,10.02
2017-08-29T02:16:14.530Z,8.98
2017-08-29T02:18:41.193Z,8.53
2017-08-29T02:21:07.896Z,7.80
2017-08-29T02:23:34.859Z,6.10
2017-08-29T02:26:01.658Z,6.43
2017-08-29T02:28:28.442Z,7.82
2017-08-29T02:30:55.099Z,6.60
2017-08-29T02:33:21.826Z,7.95
2017-08-29T02:35:48.661Z,7.68
2017-08-29T02:38:15.406Z,9.10
2017-08-29T02:40:42.155Z,9.38
2017-08-29T02:43:08.880Z,10.60
2017-08-29T02:45:35.543Z,9.73
2017-08-29T02:48:02.266Z,11.60
2017-08-29T02:50:29.000Z,10.82
2017-08-29T02:52:55.749Z,10.02
2017-08-29T02:55:22.503Z,10.98
2017-08-29T02:57:49.225Z,10.60
2017-08-29T03:00:15.984Z,9.63
2017-08-29T03:02:42.652Z,9.45
2017-08-29T03:05:09.319Z,10.52
2017-08-29T03:07:35.974Z,9.00
2017-08-29T03:10:02.668Z,8.35
2017-08-29T03:12:29.333Z,7.68
2017-08-29T03:14:56.018Z,7.45
2017-08-29T03:17:22.758Z,6.70
2017-08-29T03:19:49.502Z,7.50
2017-08-29T03:22:16.245Z,7.00
2017-08-29T03:24:42.934Z,7.25
2017-08-29T03:27:09.628Z,7.95
2017-08-29T03:29:36.264Z,8.35
2017-08-29T03:32:02.935Z,7.05
2017-08-29T03:34:29.571Z,7.30
2017-08-29T03:36:56.212Z,6.60
2017-08-29T03:39:23.234Z,8.10
2017-08-29T03:41:49.899Z,7.53
2017-08-29T03:44:16.544Z,8.05
2017-08-29T03:46:43.204Z,8.20
2017-08-29T03:49:09.869Z,7.43
2017-08-29T03:51:36.508Z,7.07
2017-08-29T03:54:03.190Z,8.48
2017-08-29T03:56:29.851Z,8.57
2017-08-29T03:58:56.547Z,8.18
2017-08-29T04:01:23.208Z,7.43
2017-08-29T04:03:49.934Z,8.60
2017-08-29T04:06:16.671Z,8.27
2017-08-29T04:08:43.357Z,7.87
2017-08-29T04:11:10.032Z,8.02
2017-08-29T04:13:36.682Z,8.63
2017-08-29T04:16:03.415Z,8.82
2017-08-29T04:18:30.174Z,8.63
2017-08-29T04:20:56.822Z,8.88
2017-08-29T04:23:23.487Z,8.25
2017-08-29T04:25:50.141Z,8.13
2017-08-29T04:28:16.803Z,8.40
2017-08-29T04:30:43.480Z,8.80
2017-08-29T04:33:10.192Z,8.93
2017-08-29T04:35:36.955Z,9.35
2017-08-29T04:38:03.682Z,9.50
2017-08-29T04:40:30.333Z,10.52
2017-08-29T04:42:56.979Z,10.80
2017-08-29T04:45:23.715Z,10.90
2017-08-29T04:47:50.373Z,10.80
2017-08-29T04:50:17.039Z,9.93
2017-08-29T04:52:43.748Z,11.45
2017-08-29T04:55:10.483Z,11.48
2017-08-29T04:57:37.132Z,12.13
2017-08-29T05:00:03.839Z,11.07
2017-08-29T05:02:30.589Z,10.25
2017-08-29T05:04:57.251Z,9.88
2017-08-29T05:07:24.073Z,9.63
2017-08-29T05:09:50.803Z,8.82
2017-08-29T05:12:17.462Z,8.90
2017-08-29T05:14:44.184Z,7.55
2017-08-29T05:17:10.824Z,8.55
2017-08-29T05:19:37.584Z,8.32
2017-08-29T05:22:04.318Z,7.47
2017-08-29T05:24:30.960Z,8.18
2017-08-29T05:26:57.690Z,8.82
2017-08-29T05:29:24.433Z,9.13
2017-08-29T05:31:51.077Z,8.07
2017-08-29T05:34:17.813Z,8.98
2017-08-29T05:36:44.515Z,7.65
2017-08-29T05:39:11.208Z,8.00
2017-08-29T05:41:37.941Z,7.93
2017-08-29T05:44:04.625Z,7.05
2017-08-29T05:46:31.283Z,7.87
2017-08-29T05:48:57.929Z,7.50
2017-08-29T05:51:24.606Z,7.55
2017-08-29T05:53:51.332Z,7.72
2017-08-29T05:56:17.967Z,7.15
2017-08-29T05:58:44.658Z,7.90
2017-08-29T06:01:11.304Z,8.30
2017-08-29T06:03:38.000Z,8.88
2017-08-29T06:06:04.712Z,8.00
2017-08-29T06:08:31.367Z,7.82
2017-08-29T06:10:58.014Z,6.20
2017-08-29T06:13:24.952Z,7.28
2017-08-29T06:15:51.611Z,6.45
2017-08-29T06:18:18.251Z,7.35
2017-08-29T06:20:44.964Z,6.35
2017-08-29T06:23:11.717Z,8.70
2017-08-29T06:25:38.379Z,8.50
2017-08-29T06:28:05.111Z,7.45
2017-08-29T06:30:31.756Z,8.20
2017-08-29T06:32:58.408Z,7.37
2017-08-29T06:35:25.229Z,8.38
2017-08-29T06:37:51.891Z,6.75
2017-08-29T06:40:18.537Z,8.10
2017-08-29T06:42:45.250Z,8.98
2017-08-29T06:45:11.980Z,8.70
2017-08-29T06:47:38.747Z,8.10
2017-08-29T06:50:05.483Z,8.77
2017-08-29T06:52:32.136Z,8.52
2017-08-29T06:54:58.849Z,8.37
2017-08-29T06:57:25.688Z,7.55
2017-08-29T06:59:52.334Z,8.52
2017-08-29T07:02:19.067Z,8.18
2017-08-29T07:04:45.840Z,8.05
2017-08-29T07:07:12.503Z,7.43
2017-08-29T07:09:39.212Z,7.20
2017-08-29T07:12:05.903Z,7.65
2017-08-29T07:14:32.564Z,8.10
2017-08-29T07:16:59.213Z,7.55
2017-08-29T07:19:25.900Z,7.05
2017-08-29T07:21:52.611Z,8.70
2017-08-29T07:24:19.276Z,7.72
2017-08-29T07:26:45.991Z,7.80
2017-08-29T07:29:12.657Z,8.07
2017-08-29T07:31:39.302Z,8.10
2017-08-29T07:34:05.992Z,7.37
2017-08-29T07:36:32.636Z,8.05
2017-08-29T07:38:59.389Z,8.85
2017-08-29T07:41:26.120Z,9.57
2017-08-29T07:43:52.770Z,8.27
2017-08-29T07:46:19.512Z,9.18
2017-08-29T07:48:46.184Z,7.93
2017-08-29T07:51:12.891Z,8.20
2017-08-29T07:53:39.537Z,9.02
2017-08-29T07:56:06.225Z,9.45
2017-08-29T07:58:32.911Z,8.15
2017-08-29T08:00:59.651Z,8.82
2017-08-29T08:03:26.395Z,10.63
2017-08-29T08:05:53.136Z,9.57
2017-08-29T08:08:19.788Z,9.70
2017-08-29T08:10:46.506Z,11.32
2017-08-29T08:13:13.156Z,10.20
2017-08-29T08:15:39.822Z,10.55
2017-08-29T08:18:06.511Z,12.18
2017-08-29T08:20:33.275Z,11.40
2017-08-29T08:22:59.921Z,9.93
2017-08-29T08:25:26.619Z,10.93
2017-08-29T08:27:53.285Z,11.18
2017-08-29T08:30:19.960Z,10.52
2017-08-29T08:32:46.668Z,10.60
2017-08-29T08:35:13.321Z,10.40
2017-08-29T08:37:40.036Z,10.43
2017-08-29T08:40:06.750Z,12.25
2017-08-29T08:42:33.429Z,14.52
2017-08-29T08:45:00.169Z,10.73
2017-08-29T08:47:26.871Z,11.93
2017-08-29T08:49:53.539Z,10.25
2017-08-29T08:52:20.394Z,11.50
2017-08-29T08:54:47.069Z,10.82
2017-08-29T08:57:13.717Z,11.38
2017-08-29T08:59:40.423Z,12.70
2017-08-29T09:02:07.105Z,12.73
2017-08-29T09:04:33.782Z,13.95
2017-08-29T09:07:00.452Z,13.57
2017-08-29T09:09:27.175Z,13.68
2017-08-29T09:11:53.848Z,13.82
2017-08-29T09:14:20.518Z,13.45
2017-08-29T09:16:47.205Z,13.50
2017-08-29T09:19:13.930Z,16.20
2017-08-29T09:21:40.669Z,14.90
2017-08-29T09:24:07.352Z,13.48
2017-08-29T09:26:34.035Z,13.60
2017-08-29T09:29:00.685Z,13.45
2017-08-29T09:31:27.356Z,13.25
2017-08-29T09:33:54.009Z,16.40
2017-08-29T09:36:20.708Z,15.68
2017-08-29T09:38:47.381Z,15.73
2017-08-29T09:41:14.055Z,16.05
2017-08-29T09:43:40.727Z,17.70
2017-08-29T09:46:07.508Z,15.90
2017-08-29T09:48:34.157Z,14.90
2017-08-29T09:51:00.803Z,17.45
2017-08-29T09:53:27.476Z,15.85
2017-08-29T09:55:54.130Z,17.83
2017-08-29T09:58:20.785Z,14.90
2017-08-29T10:00:47.475Z,15.05
2017-08-29T10:03:14.144Z,16.62
2017-08-29T10:05:40.824Z,15.77
2017-08-29T10:08:07.519Z,14.82
2017-08-29T10:10:34.186Z,13.40
2017-08-29T10:13:00.927Z,14.25
2017-08-29T10:15:27.615Z,15.10
2017-08-29T10:17:54.288Z,16.70
2017-08-29T10:20:21.146Z,14.77
2017-08-29T10:22:47.883Z,17.15
2017-08-29T10:25:14.612Z,15.27
2017-08-29T10:27:41.365Z,14.13
2017-08-29T10:30:08.101Z,12.27
2017-08-29T10:32:34.771Z,13.40
2017-08-29T10:35:01.430Z,14.65
2017-08-29T10:37:28.100Z,13.90
2017-08-29T10:39:54.762Z,14.77
2017-08-29T10:42:21.420Z,15.65
2017-08-29T10:44:48.115Z,14.65
2017-08-29T10:47:14.789Z,15.30
2017-08-29T10:49:41.440Z,15.70
2017-08-29T10:52:08.118Z,16.62
2017-08-29T10:54:34.790Z,16.30
2017-08-29T10:57:01.545Z,13.57
2017-08-29T10:59:28.224Z,13.85
2017-08-29T11:01:54.939Z,13.52
2017-08-29T11:04:21.661Z,13.93
2017-08-29T11:06:48.339Z,15.60
2017-08-29T11:09:15.011Z,13.90
2017-08-29T11:11:41.660Z,15.18
2017-08-29T11:14:08.336Z,13.82
2017-08-29T11:16:35.076Z,12.73
2017-08-29T11:19:01.756Z,12.15
2017-08-29T11:21:28.451Z,13.20
2017-08-29T11:23:55.119Z,11.50
2017-08-29T11:26:21.780Z,13.20
2017-08-29T11:28:48.461Z,11.45
2017-08-29T11:31:15.113Z,12.35
2017-08-29T11:33:41.782Z,12.57
2017-08-29T11:36:08.460Z,12.13
2017-08-29T11:38:35.130Z,11.57
2017-08-29T11:41:01.788Z,12.93
2017-08-29T11:43:28.487Z,11.20
2017-08-29T11:45:55.163Z,11.93
2017-08-29T11:48:21.835Z,11.73
2017-08-29T11:50:48.628Z,11.93
2017-08-29T11:53:15.278Z,13.97
2017-08-29T11:55:41.943Z,12.20
2017-08-29T11:58:08.621Z,11.90
2017-08-29T12:00:35.284Z,10.20
2017-08-29T12:03:01.945Z,11.70
2017-08-29T12:05:28.615Z,10.60
2017-08-29T12:07:55.264Z,10.53
2017-08-29T12:10:21.912Z,9.20
2017-08-29T12:12:48.584Z,10.67
2017-08-29T12:15:15.244Z,9.03
2017-08-29T12:17:41.893Z,9.80
2017-08-29T12:20:08.582Z,9.83
2017-08-29T12:22:35.448Z,9.67
2017-08-29T12:25:02.179Z,8.83
2017-08-29T12:27:28.864Z,8.00
2017-08-29T12:29:55.512Z,8.30
2017-08-29T12:32:22.196Z,7.57
2017-08-29T12:34:48.950Z,8.27
2017-08-29T12:37:15.610Z,7.70
2017-08-29T12:39:42.263Z,8.33
2017-08-29T12:42:09.066Z,8.40
2017-08-29T12:44:35.705Z,8.47
2017-08-29T12:47:02.352Z,8.87
2017-08-29T12:49:29.194Z,7.37
2017-08-29T12:51:55.860Z,7.77
2017-08-29T12:54:22.512Z,8.53
2017-08-29T12:56:49.195Z,8.13
2017-08-29T12:59:15.842Z,8.33
2017-08-29T13:01:42.554Z,8.23
2017-08-29T13:04:09.240Z,7.07
2017-08-29T13:06:35.880Z,8.70
2017-08-29T13:09:02.524Z,7.13
2017-08-29T13:11:29.207Z,7.80
2017-08-29T13:13:55.871Z,8.00
2017-08-29T13:16:22.524Z,7.03
2017-08-29T13:18:49.284Z,6.50
2017-08-29T13:21:15.937Z,7.50
2017-08-29T13:23:42.589Z,93.77
2017-08-29T13:26:09.295Z,100.97
2017-08-29T13:28:36.043Z,90.73
2017-08-29T13:31:02.701Z,15.40
2017-08-29T13:33:29.404Z,7.43
2017-08-29T13:35:56.052Z,58.77
2017-08-29T13:38:22.703Z,37.70
2017-08-29T13:40:49.443Z,27.00
2017-08-29T13:43:16.180Z,6.30
2017-08-29T13:45:42.915Z,11.90
2017-08-29T13:48:09.590Z,8.20
2017-08-29T13:50:36.246Z,9.03
2017-08-29T13:53:02.915Z,11.33
2017-08-29T13:55:29.607Z,11.03
2017-08-29T13:57:56.458Z,11.13
2017-08-29T14:00:23.154Z,7.93
2017-08-29T14:02:49.829Z,9.83
2017-08-29T14:05:16.535Z,7.97
2017-08-29T14:07:43.176Z,8.03
2017-08-29T14:10:09.926Z,6.67
2017-08-29T14:12:36.653Z,48.37
2017-08-29T14:15:03.308Z,30.67
2017-08-29T14:17:30.047Z,18.17
2017-08-29T14:19:56.782Z,13.13
2017-08-29T14:22:23.439Z,6.93
2017-08-29T14:24:50.120Z,15.10
2017-08-29T14:27:16.813Z,8.00
2017-08-29T14:29:43.486Z,8.03
2017-08-29T14:32:10.195Z,10.50
2017-08-29T14:34:36.862Z,7.57
2017-08-29T14:37:03.528Z,8.87
2017-08-29T14:39:30.295Z,8.97
2017-08-29T14:41:56.952Z,25.27
2017-08-29T14:44:23.689Z,8.43
2017-08-29T14:47:09.965Z,11.80
2017-08-29T14:49:36.635Z,16.13
2017-08-29T14:52:03.357Z,10.37
2017-08-29T14:54:30.041Z,12.50
2017-08-29T14:56:56.754Z,9.80
2017-08-29T14:59:23.393Z,7.20
2017-08-29T15:01:50.080Z,8.60
2017-08-29T15:04:16.770Z,6.83
2017-08-29T15:06:43.430Z,6.63
2017-08-29T15:09:10.106Z,7.43
2017-08-29T15:11:36.777Z,6.10
2017-08-29T15:14:03.443Z,6.10
2017-08-29T15:16:30.163Z,5.90
2017-08-29T15:18:56.813Z,6.70
2017-08-29T15:21:23.560Z,17.83
2017-08-29T15:23:50.240Z,22.60
2017-08-29T15:26:16.903Z,20.00
2017-08-29T15:28:43.657Z,6.33
2017-08-29T15:31:10.342Z,13.00
2017-08-29T15:33:37.003Z,8.23
2017-08-29T15:36:03.698Z,7.07
2017-08-29T15:38:30.421Z,7.40
2017-08-29T15:40:57.065Z,6.27
2017-08-29T15:43:23.700Z,6.87
2017-08-29T15:45:50.442Z,8.50
2017-08-29T15:48:17.180Z,6.73
2017-08-29T15:50:43.842Z,10.33
2017-08-29T15:53:10.579Z,6.80
2017-08-29T15:55:37.315Z,6.63
2017-08-29T15:58:04.052Z,8.13
2017-08-29T16:00:30.732Z,7.93
2017-08-29T16:02:57.375Z,6.10
2017-08-29T16:05:24.031Z,7.37
2017-08-29T16:07:50.712Z,8.13
2017-08-29T16:10:17.352Z,8.70
2017-08-29T16:12:44.003Z,6.10
2017-08-29T16:15:10.738Z,5.93
2017-08-29T16:17:37.480Z,6.73
2017-08-29T16:20:04.134Z,7.63
2017-08-29T16:22:30.819Z,8.27
2017-08-29T16:24:57.595Z,7.60
2017-08-29T16:27:24.250Z,7.37
2017-08-29T16:29:51.645Z,7.40
2017-08-29T16:32:18.301Z,8.27
2017-08-29T16:34:44.960Z,6.97
2017-08-29T16:37:11.699Z,9.00
2017-08-29T16:39:38.359Z,8.70
2017-08-29T16:42:05.008Z,9.10
2017-08-29T16:44:31.691Z,8.30
2017-08-29T16:46:58.381Z,8.10
2017-08-29T16:49:25.028Z,10.70
2017-08-29T16:51:51.711Z,9.80
2017-08-29T16:54:18.367Z,8.70
2017-08-29T16:56:45.023Z,10.37
2017-08-29T16:59:11.755Z,10.40
2017-08-29T17:01:40.027Z,10.37
2017-08-29T17:04:06.759Z,10.10
2017-08-29T17:06:33.474Z,9.40
2017-08-29T17:09:01.299Z,9.17
2017-08-29T17:11:28.007Z,9.80
2017-08-29T17:13:54.713Z,13.13
2017-08-29T17:16:21.392Z,10.67
2017-08-29T17:18:48.073Z,11.80
2017-08-29T17:21:14.842Z,11.67
2017-08-29T17:23:41.539Z,11.30
2017-08-29T17:26:08.243Z,11.30
2017-08-29T17:28:34.969Z,12.07
2017-08-29T17:31:01.666Z,13.57
2017-08-29T17:33:28.349Z,14.10
2017-08-29T17:35:55.071Z,12.90
2017-08-29T17:38:21.809Z,11.33
2017-08-29T17:40:48.497Z,11.10
2017-08-29T17:43:15.213Z,10.30
2017-08-29T17:45:41.891Z,11.67
2017-08-29T17:48:08.574Z,10.83
2017-08-29T17:50:35.282Z,12.47
2017-08-29T17:53:01.952Z,11.67
2017-08-29T17:55:28.643Z,12.10
2017-08-29T17:57:55.367Z,12.03
2017-08-29T18:00:22.056Z,11.60
2017-08-29T18:02:48.748Z,11.50
2017-08-29T18:05:15.484Z,12.65
2017-08-29T18:07:42.186Z,12.37
2017-08-29T18:10:08.895Z,12.50
2017-08-29T18:12:35.616Z,12.10
2017-08-29T18:15:02.320Z,12.45
2017-08-29T18:17:29.008Z,12.85
2017-08-29T18:19:55.739Z,11.90
2017-08-29T18:22:22.442Z,12.48
2017-08-29T18:24:49.132Z,11.40
2017-08-29T18:27:15.863Z,12.98
2017-08-29T18:29:42.574Z,13.38
2017-08-29T18:32:09.274Z,11.77
2017-08-29T18:34:35.988Z,12.40
2017-08-29T18:37:02.683Z,14.00
2017-08-29T18:39:29.379Z,13.18
2017-08-29T18:41:56.088Z,13.15
2017-08-29T18:44:22.768Z,12.75
2017-08-29T18:46:49.444Z,13.15
2017-08-29T18:49:16.167Z,12.75
2017-08-29T18:51:42.860Z,13.20
2017-08-29T18:54:09.556Z,13.23
2017-08-29T18:56:36.283Z,14.00
2017-08-29T18:59:02.964Z,13.77
2017-08-29T19:01:29.656Z,15.00
2017-08-29T19:03:56.364Z,13.85
2017-08-29T19:06:23.048Z,12.20
2017-08-29T19:08:49.747Z,12.75
2017-08-29T19:11:16.461Z,12.93
2017-08-29T19:13:43.146Z,13.10
2017-08-29T19:16:09.800Z,14.43
2017-08-29T19:18:36.476Z,13.23
2017-08-29T19:21:03.146Z,14.00
2017-08-29T19:23:29.815Z,12.27
2017-08-29T19:25:56.507Z,12.60
2017-08-29T19:28:23.169Z,12.25
2017-08-29T19:30:49.820Z,12.45
2017-08-29T19:33:16.528Z,13.02
2017-08-29T19:35:43.185Z,13.88
2017-08-29T19:38:09.847Z,13.95
2017-08-29T19:40:36.524Z,17.75
2017-08-29T19:43:03.236Z,13.60
2017-08-29T19:45:29.904Z,16.70
2017-08-29T19:47:56.608Z,15.80
2017-08-29T19:50:23.260Z,16.87
2017-08-29T19:52:49.989Z,20.92
2017-08-29T19:55:17.759Z,17.30
2017-08-29T19:57:44.422Z,15.82
2017-08-29T20:00:11.148Z,15.95
2017-08-29T20:02:37.849Z,17.95
2017-08-29T20:05:04.536Z,19.08
2017-08-29T20:07:31.260Z,21.48
2017-08-29T20:09:58.008Z,21.83
2017-08-29T20:12:24.759Z,19.58
2017-08-29T20:14:51.414Z,24.30
2017-08-29T20:17:18.142Z,22.37
2017-08-29T20:19:44.879Z,24.37
2017-08-29T20:22:11.623Z,22.37
2017-08-29T20:24:38.317Z,19.45
2017-08-29T20:27:04.983Z,17.23
2017-08-29T20:29:31.747Z,19.12
2017-08-29T20:31:58.450Z,17.25
2017-08-29T20:34:25.100Z,17.20
2017-08-29T20:36:51.753Z,17.40
2017-08-29T20:39:18.426Z,17.37
2017-08-29T20:41:45.089Z,18.27
2017-08-29T20:44:11.777Z,17.02
2017-08-29T20:46:38.461Z,18.35
2017-08-29T20:49:05.117Z,18.55
2017-08-29T20:51:31.764Z,17.55
2017-08-29T20:53:58.532Z,18.30
2017-08-29T20:56:25.186Z,17.83
2017-08-29T20:58:51.909Z,17.98
2017-08-29T21:01:18.668Z,18.30
2017-08-29T21:03:45.331Z,18.27
2017-08-29T21:06:11.980Z,17.52
2017-08-29T21:08:38.787Z,16.23
2017-08-29T21:11:05.460Z,17.77
2017-08-29T21:13:32.132Z,17.30
2017-08-29T21:15:58.911Z,19.30
2017-08-29T21:18:25.631Z,18.40
2017-08-29T21:20:52.295Z,16.30
2017-08-29T21:23:18.968Z,16.05
2017-08-29T21:25:45.652Z,16.98
2017-08-29T21:28:12.428Z,16.33
2017-08-29T21:30:39.156Z,16.23
2017-08-29T21:33:05.812Z,17.65
2017-08-29T21:35:32.483Z,16.48
2017-08-29T21:37:59.173Z,16.15
2017-08-29T21:40:25.897Z,16.55
2017-08-29T21:42:52.641Z,15.60
2017-08-29T21:45:19.327Z,15.68
2017-08-29T21:47:45.982Z,15.15
2017-08-29T21:50:12.656Z,17.00
2017-08-29T21:52:39.401Z,15.57
2017-08-29T21:55:06.156Z,15.10
2017-08-29T21:57:32.822Z,13.70
2017-08-29T21:59:59.514Z,14.65
2017-08-29T22:02:26.188Z,18.25
2017-08-29T22:04:52.899Z,19.10
2017-08-29T22:07:19.659Z,21.45
2017-08-29T22:09:46.364Z,21.75
2017-08-29T22:12:13.046Z,23.87
2017-08-29T22:14:39.738Z,24.10
2017-08-29T22:17:06.522Z,22.67
2017-08-29T22:19:33.258Z,23.12
2017-08-29T22:21:59.990Z,24.73
2017-08-29T22:24:26.747Z,22.48
2017-08-29T22:26:53.419Z,18.87
2017-08-29T22:29:20.096Z,17.02
2017-08-29T22:31:46.770Z,16.73
2017-08-29T22:34:13.455Z,16.02
2017-08-29T22:36:40.128Z,15.55
2017-08-29T22:39:06.868Z,15.52
2017-08-29T22:41:33.535Z,15.30
2017-08-29T22:44:00.231Z,15.68
2017-08-29T22:46:26.880Z,17.23
2017-08-29T22:48:53.546Z,16.62
2017-08-29T22:51:20.231Z,16.50
2017-08-29T22:53:46.944Z,16.27
2017-08-29T22:56:13.623Z,15.10
2017-08-29T22:58:40.328Z,16.37
2017-08-29T23:01:06.998Z,16.30
2017-08-29T23:03:33.657Z,15.50
2017-08-29T23:06:00.330Z,18.00
2017-08-29T23:08:26.995Z,14.80
2017-08-29T23:10:53.649Z,15.43
2017-08-29T23:13:20.320Z,14.20
2017-08-29T23:15:46.981Z,12.82
2017-08-29T23:18:13.638Z,14.85
2017-08-29T23:20:40.347Z,14.32
2017-08-29T23:23:07.001Z,15.90
2017-08-29T23:25:33.655Z,16.77
2017-08-29T23:28:00.371Z,17.08
2017-08-29T23:30:27.023Z,17.10
2017-08-29T23:32:53.749Z,17.52
2017-08-29T23:35:20.448Z,17.30
2017-08-29T23:37:47.105Z,15.32
2017-08-29T23:40:13.771Z,15.90
2017-08-29T23:42:40.459Z,17.30
2017-08-29T23:45:07.127Z,17.05
2017-08-29T23:47:33.791Z,17.75
2017-08-29T23:50:00.483Z,19.58
2017-08-29T23:52:27.132Z,20.23
2017-08-29T23:54:53.809Z,20.48
2017-08-29T23:57:20.503Z,17.87
2017-08-29T23:59:47.170Z,18.58
